createdAt,value
2018-10-03T00:02:13.726Z,73.37
2018-10-03T00:04:43.050Z,73.38
2018-10-03T00:07:12.400Z,73.28
2018-10-03T00:09:41.727Z,73.34
2018-10-03T00:12:11.474Z,73.19
2018-10-03T00:14:40.806Z,73.07
2018-10-03T00:17:10.133Z,72.93
2018-10-03T00:19:39.510Z,72.52
2018-10-03T00:22:08.811Z,72.22
2018-10-03T00:24:40.448Z,71.89
2018-10-03T00:27:09.774Z,71.76
2018-10-03T00:29:39.182Z,71.61
2018-10-03T00:32:09.164Z,71.47
2018-10-03T00:34:38.530Z,71.59
2018-10-03T00:37:07.847Z,71.61
2018-10-03T00:39:37.169Z,71.61
2018-10-03T00:42:07.419Z,72.00
2018-10-03T00:44:36.760Z,71.90
2018-10-03T00:47:06.233Z,72.11
2018-10-03T00:49:35.631Z,71.70
2018-10-03T00:52:04.991Z,72.23
2018-10-03T00:54:34.920Z,72.48
2018-10-03T00:57:04.263Z,72.43
2018-10-03T00:59:33.603Z,72.67
2018-10-03T01:02:02.907Z,72.60
2018-10-03T01:04:35.488Z,72.63
2018-10-03T01:07:05.311Z,73.40
2018-10-03T01:09:34.684Z,73.62
2018-10-03T01:12:05.342Z,73.77
2018-10-03T01:14:35.739Z,73.12
2018-10-03T01:17:05.884Z,73.61
2018-10-03T01:19:35.288Z,74.89
2018-10-03T01:22:04.657Z,75.31
2018-10-03T01:24:34.127Z,75.25
2018-10-03T01:27:03.518Z,75.90
2018-10-03T01:29:34.480Z,76.16
2018-10-03T01:32:03.878Z,75.73
2018-10-03T01:34:33.213Z,75.99
2018-10-03T01:37:02.764Z,76.21
2018-10-03T01:39:32.076Z,76.08
2018-10-03T01:42:02.415Z,76.01
2018-10-03T01:44:31.872Z,77.03
2018-10-03T01:47:01.271Z,77.18
2018-10-03T01:49:31.501Z,76.69
2018-10-03T01:52:00.816Z,76.51
2018-10-03T01:54:30.149Z,76.91
2018-10-03T01:56:59.730Z,76.58
2018-10-03T01:59:29.395Z,75.86
2018-10-03T02:01:58.758Z,76.10
2018-10-03T02:04:28.080Z,76.22
2018-10-03T02:06:57.406Z,76.31
2018-10-03T02:09:26.730Z,75.83
2018-10-03T02:11:56.033Z,75.58
2018-10-03T02:14:25.351Z,76.01
2018-10-03T02:16:54.617Z,75.58
2018-10-03T02:19:24.060Z,76.24
2018-10-03T02:21:53.449Z,75.85
2018-10-03T02:24:22.843Z,75.84
2018-10-03T02:26:52.186Z,76.41
2018-10-03T02:29:21.573Z,76.61
2018-10-03T02:31:50.896Z,76.46
2018-10-03T02:34:20.269Z,76.45
2018-10-03T02:36:49.678Z,76.48
2018-10-03T02:39:19.010Z,76.09
2018-10-03T02:41:48.448Z,76.30
2018-10-03T02:44:18.100Z,76.46
2018-10-03T02:46:47.503Z,76.64
2018-10-03T02:49:16.866Z,76.84
2018-10-03T02:51:46.574Z,77.49
2018-10-03T02:54:15.906Z,77.23
2018-10-03T02:56:45.348Z,78.31
2018-10-03T02:59:14.897Z,77.58
2018-10-03T03:01:44.453Z,77.01
2018-10-03T03:04:13.857Z,76.12
2018-10-03T03:06:43.397Z,77.31
2018-10-03T03:09:14.076Z,76.41
2018-10-03T03:11:43.564Z,76.98
2018-10-03T03:14:12.974Z,76.45
2018-10-03T03:16:42.379Z,76.74
2018-10-03T03:19:11.760Z,76.62
2018-10-03T03:21:41.092Z,76.33
2018-10-03T03:24:10.396Z,76.17
2018-10-03T03:26:39.739Z,75.98
2018-10-03T03:29:09.386Z,76.29
2018-10-03T03:31:38.760Z,76.06
2018-10-03T03:34:08.068Z,75.77
2018-10-03T03:36:37.372Z,76.61
2018-10-03T03:39:07.983Z,76.89
2018-10-03T03:41:37.377Z,76.77
2018-10-03T03:44:06.746Z,75.70
2018-10-03T03:46:36.692Z,75.87
2018-10-03T03:49:06.141Z,76.00
2018-10-03T03:51:35.577Z,75.53
2018-10-03T03:54:04.924Z,75.70
2018-10-03T03:56:34.314Z,76.03
2018-10-03T03:59:03.707Z,75.77
2018-10-03T04:01:33.600Z,75.36
2018-10-03T04:04:02.967Z,75.03
2018-10-03T04:06:32.355Z,74.72
2018-10-03T04:09:01.653Z,74.75
2018-10-03T04:11:31.106Z,75.17
2018-10-03T04:14:00.571Z,75.46
2018-10-03T04:16:30.083Z,75.21
2018-10-03T04:18:59.446Z,75.53
2018-10-03T04:21:32.266Z,75.63
2018-10-03T04:24:01.599Z,75.37
2018-10-03T04:26:30.986Z,75.64
2018-10-03T04:29:00.382Z,76.15
2018-10-03T04:31:29.834Z,76.56
2018-10-03T04:33:59.191Z,76.50
2018-10-03T04:36:28.686Z,76.03
2018-10-03T04:38:57.966Z,76.64
2018-10-03T04:41:27.350Z,77.54
2018-10-03T04:43:56.719Z,77.35
2018-10-03T04:46:26.109Z,77.07
2018-10-03T04:48:55.561Z,76.97
2018-10-03T04:51:24.939Z,76.34
2018-10-03T04:53:54.238Z,76.16
2018-10-03T04:56:23.510Z,76.83
2018-10-03T04:58:53.090Z,77.24
2018-10-03T05:01:22.363Z,77.31
2018-10-03T05:03:51.678Z,76.94
2018-10-03T05:06:20.991Z,76.68
2018-10-03T05:08:50.293Z,76.87
2018-10-03T05:11:19.613Z,76.12
2018-10-03T05:13:48.928Z,77.16
2018-10-03T05:16:18.275Z,76.88
2018-10-03T05:18:48.483Z,77.45
2018-10-03T05:21:17.867Z,77.91
2018-10-03T05:23:47.167Z,77.98
2018-10-03T05:26:16.425Z,77.52
2018-10-03T05:28:45.764Z,77.27
2018-10-03T05:31:15.065Z,77.61
2018-10-03T05:33:44.371Z,77.69
2018-10-03T05:36:13.684Z,77.02
2018-10-03T05:38:42.958Z,76.50
2018-10-03T05:41:13.396Z,76.90
2018-10-03T05:43:43.223Z,76.92
2018-10-03T05:46:12.609Z,76.81
2018-10-03T05:48:41.935Z,77.06
2018-10-03T05:51:11.284Z,77.95
2018-10-03T05:53:40.682Z,77.96
2018-10-03T05:56:10.007Z,78.63
2018-10-03T05:58:39.385Z,78.50
2018-10-03T06:01:08.751Z,79.01
2018-10-03T06:03:38.110Z,80.04
2018-10-03T06:06:08.149Z,79.97
2018-10-03T06:08:37.531Z,79.91
2018-10-03T06:11:06.964Z,79.20
2018-10-03T06:13:36.342Z,78.97
2018-10-03T06:16:05.890Z,78.55
2018-10-03T06:18:35.322Z,78.30
2018-10-03T06:21:04.683Z,77.59
2018-10-03T06:23:34.050Z,78.04
2018-10-03T06:26:03.384Z,77.51
2018-10-03T06:28:33.170Z,77.61
2018-10-03T06:31:02.881Z,78.39
2018-10-03T06:33:32.243Z,77.94
2018-10-03T06:36:01.747Z,77.97
2018-10-03T06:38:31.220Z,78.92
2018-10-03T06:41:00.660Z,78.18
2018-10-03T06:43:30.060Z,77.90
2018-10-03T06:45:59.400Z,77.89
2018-10-03T06:48:28.759Z,76.57
2018-10-03T06:50:58.295Z,76.23
2018-10-03T06:53:27.660Z,74.59
2018-10-03T06:55:56.961Z,74.18
2018-10-03T06:58:26.339Z,72.44
2018-10-03T07:00:55.754Z,70.08
2018-10-03T07:03:25.147Z,70.55
2018-10-03T07:05:54.560Z,71.98
2018-10-03T07:08:23.908Z,75.06
2018-10-03T07:10:53.279Z,75.71
2018-10-03T07:13:22.726Z,75.41
2018-10-03T07:15:52.061Z,76.34
2018-10-03T07:18:21.428Z,75.63
2018-10-03T07:20:50.836Z,73.25
2018-10-03T07:23:20.152Z,72.51
2018-10-03T07:25:49.489Z,70.24
2018-10-03T07:28:18.909Z,62.64
2018-10-03T07:30:48.249Z,55.51
2018-10-03T07:33:17.656Z,50.54
2018-10-03T07:35:47.265Z,49.34
2018-10-03T07:38:16.578Z,52.75
2018-10-03T07:40:45.933Z,55.15
2018-10-03T07:43:15.343Z,57.45
2018-10-03T07:45:44.759Z,59.24
2018-10-03T07:48:14.079Z,59.15
2018-10-03T07:50:43.508Z,62.71
2018-10-03T07:53:12.883Z,60.58
2018-10-03T07:55:42.228Z,53.61
2018-10-03T07:58:11.688Z,51.32
2018-10-03T08:00:41.035Z,51.47
2018-10-03T08:03:12.910Z,48.20
2018-10-03T08:05:42.174Z,45.51
2018-10-03T08:08:11.533Z,48.24
2018-10-03T08:10:41.622Z,51.06
2018-10-03T08:13:11.191Z,55.10
2018-10-03T08:15:40.883Z,58.17
2018-10-03T08:18:10.500Z,60.16
2018-10-03T08:20:39.914Z,59.83
2018-10-03T08:23:09.419Z,58.96
2018-10-03T08:25:38.994Z,55.17
2018-10-03T08:28:08.399Z,50.11
2018-10-03T08:30:38.041Z,46.83
2018-10-03T08:33:07.782Z,42.37
2018-10-03T08:35:37.173Z,41.14
2018-10-03T08:38:06.581Z,40.68
2018-10-03T08:40:36.324Z,39.29
2018-10-03T08:43:05.760Z,37.47
2018-10-03T08:45:35.352Z,35.09
2018-10-03T08:48:04.841Z,33.22
2018-10-03T08:50:34.246Z,36.28
2018-10-03T08:53:04.127Z,35.58
2018-10-03T08:55:33.740Z,31.60
2018-10-03T08:58:03.153Z,30.28
2018-10-03T09:00:32.698Z,31.54
2018-10-03T09:03:02.408Z,33.96
2018-10-03T09:05:32.284Z,35.34
2018-10-03T09:08:15.726Z,39.01
2018-10-03T09:10:48.884Z,44.41
2018-10-03T09:13:18.488Z,46.82
2018-10-03T09:15:48.090Z,44.38
2018-10-03T09:18:18.771Z,43.57
2018-10-03T09:20:48.547Z,43.65
2018-10-03T09:23:20.104Z,42.47
2018-10-03T09:25:49.916Z,39.72
2018-10-03T09:28:19.393Z,37.13
2018-10-03T09:30:49.945Z,37.16
2018-10-03T09:33:19.804Z,38.79
2018-10-03T09:35:49.223Z,42.13
2018-10-03T09:38:19.728Z,44.05
2018-10-03T09:40:49.386Z,37.72
2018-10-03T09:43:18.846Z,37.57
2018-10-03T09:45:49.515Z,39.02
2018-10-03T09:48:19.096Z,36.38
2018-10-03T09:50:48.552Z,31.15
2018-10-03T09:53:18.038Z,28.56
2018-10-03T09:55:48.043Z,27.17
2018-10-03T09:58:17.463Z,25.26
2018-10-03T10:00:52.235Z,26.34
2018-10-03T10:03:21.716Z,23.36
2018-10-03T10:05:51.087Z,22.63
2018-10-03T10:08:20.476Z,24.48
2018-10-03T10:10:49.863Z,24.02
2018-10-03T10:13:19.315Z,25.05
2018-10-03T10:15:48.717Z,28.20
2018-10-03T10:18:18.064Z,30.82
2018-10-03T10:20:47.621Z,31.59
2018-10-03T10:23:17.104Z,35.12
2018-10-03T10:25:46.447Z,42.04
2018-10-03T10:28:16.058Z,42.15
2018-10-03T10:30:46.645Z,33.59
2018-10-03T10:33:16.556Z,28.33
2018-10-03T10:35:46.085Z,28.09
2018-10-03T10:38:15.598Z,25.15
2018-10-03T10:40:45.539Z,24.25
2018-10-03T10:43:16.041Z,24.57
2018-10-03T10:45:45.803Z,25.87
2018-10-03T10:48:16.586Z,29.00
2018-10-03T10:50:46.466Z,26.70
2018-10-03T10:53:16.609Z,25.40
2018-10-03T10:55:47.222Z,24.66
2018-10-03T10:58:16.689Z,25.60
2018-10-03T11:00:46.123Z,23.64
2018-10-03T11:03:15.771Z,23.01
2018-10-03T11:05:45.628Z,24.43
2018-10-03T11:08:15.196Z,25.19
2018-10-03T11:10:44.552Z,27.87
2018-10-03T11:13:14.090Z,29.08
2018-10-03T11:15:43.618Z,29.50
2018-10-03T11:18:13.024Z,32.42
2018-10-03T11:20:42.468Z,35.17
2018-10-03T11:23:11.845Z,34.34
2018-10-03T11:25:41.232Z,34.37
2018-10-03T11:28:10.760Z,30.57
2018-10-03T11:30:40.304Z,24.90
2018-10-03T11:33:09.714Z,21.60
2018-10-03T11:35:41.851Z,20.82
2018-10-03T11:38:11.248Z,21.24
2018-10-03T11:40:40.688Z,20.94
2018-10-03T11:43:10.068Z,21.35
2018-10-03T11:45:39.781Z,26.03
2018-10-03T11:48:10.237Z,30.45
2018-10-03T11:50:40.372Z,34.77
2018-10-03T11:53:09.859Z,36.84
2018-10-03T11:55:40.898Z,34.91
2018-10-03T11:58:10.669Z,29.50
2018-10-03T12:00:40.115Z,26.43
2018-10-03T12:03:09.594Z,26.14
2018-10-03T12:05:40.929Z,26.20
2018-10-03T12:08:10.313Z,29.10
2018-10-03T12:10:40.418Z,32.76
2018-10-03T12:13:09.983Z,36.20
2018-10-03T12:15:41.412Z,38.85
2018-10-03T12:18:11.833Z,42.68
2018-10-03T12:20:41.405Z,46.32
2018-10-03T12:23:10.847Z,46.46
2018-10-03T12:25:45.573Z,39.39
2018-10-03T12:28:15.455Z,33.29
2018-10-03T12:30:44.906Z,30.98
2018-10-03T12:33:14.399Z,30.24
2018-10-03T12:35:45.609Z,27.13
2018-10-03T12:38:15.251Z,27.78
2018-10-03T12:40:45.470Z,26.66
2018-10-03T12:43:15.813Z,25.92
2018-10-03T12:45:47.543Z,25.31
2018-10-03T12:48:18.193Z,24.42
2018-10-03T12:50:47.912Z,23.26
2018-10-03T12:53:17.480Z,22.86
2018-10-03T12:55:47.131Z,22.72
2018-10-03T12:58:17.673Z,23.75
2018-10-03T13:00:47.672Z,25.69
2018-10-03T13:03:17.490Z,28.72
2018-10-03T13:05:47.095Z,29.91
2018-10-03T13:08:16.873Z,30.22
2018-10-03T13:10:47.420Z,32.15
2018-10-03T13:13:21.177Z,32.88
2018-10-03T13:15:50.566Z,35.73
2018-10-03T13:18:22.636Z,36.24
2018-10-03T13:20:52.097Z,36.93
2018-10-03T13:23:21.547Z,37.89
2018-10-03T13:25:51.027Z,37.74
2018-10-03T13:28:21.431Z,34.13
2018-10-03T13:30:50.819Z,35.14
2018-10-03T13:33:20.123Z,37.70
2018-10-03T13:35:49.620Z,39.43
2018-10-03T13:38:19.047Z,40.90
2018-10-03T13:40:48.936Z,41.62
2018-10-03T13:43:18.889Z,41.82
2018-10-03T13:45:48.381Z,42.47
2018-10-03T13:48:17.783Z,42.29
2018-10-03T13:50:47.452Z,42.33
2018-10-03T13:53:16.881Z,42.97
2018-10-03T13:55:47.409Z,42.70
2018-10-03T13:58:22.718Z,41.14
2018-10-03T14:00:52.371Z,38.66
2018-10-03T14:03:21.807Z,39.31
2018-10-03T14:05:51.584Z,43.29
2018-10-03T14:08:20.989Z,43.06
2018-10-03T14:10:50.466Z,41.06
2018-10-03T14:13:19.971Z,40.90
2018-10-03T14:15:49.269Z,37.24
2018-10-03T14:18:20.514Z,36.21
2018-10-03T14:20:50.605Z,33.89
2018-10-03T14:23:20.038Z,35.07
2018-10-03T14:25:49.441Z,37.01
2018-10-03T14:28:18.975Z,41.63
2018-10-03T14:30:49.935Z,44.06
2018-10-03T14:33:19.414Z,45.45
2018-10-03T14:35:48.830Z,46.65
2018-10-03T14:38:19.084Z,44.33
2018-10-03T14:40:48.556Z,44.41
2018-10-03T14:43:18.036Z,45.89
2018-10-03T14:45:47.400Z,40.99
2018-10-03T14:48:18.672Z,39.03
2018-10-03T14:50:48.259Z,37.30
2018-10-03T14:53:17.581Z,38.56
2018-10-03T14:55:47.380Z,40.99
2018-10-03T14:58:16.804Z,40.40
2018-10-03T15:00:47.362Z,39.44
2018-10-03T15:03:16.738Z,39.67
2018-10-03T15:05:46.228Z,43.15
2018-10-03T15:08:15.732Z,46.00
2018-10-03T15:10:45.379Z,45.93
2018-10-03T15:13:16.187Z,43.15
2018-10-03T15:15:45.609Z,42.70
2018-10-03T15:18:15.082Z,45.13
2018-10-03T15:20:44.675Z,44.32
2018-10-03T15:23:14.077Z,45.50
2018-10-03T15:25:43.437Z,45.30
2018-10-03T15:28:12.821Z,44.30
2018-10-03T15:30:42.148Z,44.72
2018-10-03T15:33:11.576Z,45.61
2018-10-03T15:35:41.299Z,46.46
2018-10-03T15:38:10.622Z,46.56
2018-10-03T15:40:40.148Z,47.05
2018-10-03T15:43:09.702Z,47.57
2018-10-03T15:45:39.103Z,48.17
2018-10-03T15:48:08.698Z,47.38
2018-10-03T15:50:38.730Z,48.23
2018-10-03T15:53:08.776Z,48.01
2018-10-03T15:55:39.129Z,48.02
2018-10-03T15:58:08.531Z,48.73
2018-10-03T16:00:37.917Z,48.86
2018-10-03T16:03:09.156Z,48.10
2018-10-03T16:05:38.491Z,48.75
2018-10-03T16:08:08.895Z,49.12
2018-10-03T16:10:38.359Z,49.70
2018-10-03T16:13:08.309Z,50.23
2018-10-03T16:15:37.643Z,50.22
2018-10-03T16:18:07.473Z,51.08
2018-10-03T16:20:37.156Z,51.00
2018-10-03T16:23:06.666Z,50.94
2018-10-03T16:25:36.057Z,51.41
2018-10-03T16:28:05.538Z,51.66
2018-10-03T16:30:34.894Z,51.86
2018-10-03T16:33:04.245Z,51.57
2018-10-03T16:35:33.593Z,52.44
2018-10-03T16:38:02.932Z,52.47
2018-10-03T16:40:32.450Z,52.54
2018-10-03T16:43:01.920Z,53.02
2018-10-03T16:45:31.407Z,52.23
2018-10-03T16:48:00.859Z,52.61
2018-10-03T16:50:30.222Z,53.27
2018-10-03T16:52:59.576Z,53.21
2018-10-03T16:55:29.039Z,53.11
2018-10-03T16:57:58.340Z,53.38
2018-10-03T17:00:27.673Z,53.46
2018-10-03T17:02:57.332Z,53.42
2018-10-03T17:05:26.699Z,54.01
2018-10-03T17:07:56.103Z,54.08
2018-10-03T17:10:25.463Z,54.36
2018-10-03T17:12:54.846Z,54.22
2018-10-03T17:15:24.320Z,55.05
2018-10-03T17:17:54.438Z,55.30
2018-10-03T17:20:28.224Z,56.31
2018-10-03T17:22:57.858Z,56.40
2018-10-03T17:25:27.267Z,57.19
2018-10-03T17:27:56.634Z,56.71
2018-10-03T17:30:26.037Z,56.59
2018-10-03T17:32:55.481Z,56.43
2018-10-03T17:35:24.937Z,56.25
2018-10-03T17:37:55.138Z,55.93
2018-10-03T17:40:24.499Z,56.05
2018-10-03T17:42:54.565Z,55.94
2018-10-03T17:45:24.881Z,55.87
2018-10-03T17:47:54.397Z,56.36
2018-10-03T17:50:23.862Z,56.37
2018-10-03T17:52:53.421Z,56.61
2018-10-03T17:55:23.205Z,57.06
2018-10-03T17:57:52.639Z,57.36
2018-10-03T18:00:22.150Z,58.41
2018-10-03T18:02:51.514Z,59.31
2018-10-03T18:05:23.507Z,59.55
2018-10-03T18:07:52.882Z,59.44
2018-10-03T18:10:22.226Z,60.47
2018-10-03T18:12:51.687Z,61.53
2018-10-03T18:15:22.037Z,62.04
2018-10-03T18:17:51.357Z,63.50
2018-10-03T18:20:21.943Z,63.37
2018-10-03T18:22:52.419Z,63.82
2018-10-03T18:25:22.425Z,64.64
2018-10-03T18:27:51.968Z,64.83
2018-10-03T18:30:23.278Z,64.01
2018-10-03T18:32:53.406Z,64.14
2018-10-03T18:35:23.021Z,63.22
2018-10-03T18:37:52.537Z,62.94
2018-10-03T18:40:22.096Z,63.02
2018-10-03T18:42:51.547Z,63.08
2018-10-03T18:45:21.252Z,65.17
2018-10-03T18:47:50.624Z,63.50
2018-10-03T18:50:20.099Z,64.39
2018-10-03T18:52:49.498Z,65.01
2018-10-03T18:55:18.881Z,65.41
2018-10-03T18:57:48.393Z,65.80
2018-10-03T19:00:17.846Z,65.27
2018-10-03T19:02:47.345Z,66.29
2018-10-03T19:05:16.728Z,66.48
2018-10-03T19:07:46.171Z,67.12
2018-10-03T19:10:15.584Z,67.04
2018-10-03T19:12:44.989Z,66.62
2018-10-03T19:15:14.504Z,67.05
2018-10-03T19:17:43.982Z,66.68
2018-10-03T19:20:13.428Z,67.39
2018-10-03T19:22:42.718Z,68.23
2018-10-03T19:25:12.156Z,68.06
2018-10-03T19:27:41.523Z,67.99
2018-10-03T19:30:11.276Z,67.50
2018-10-03T19:32:40.652Z,67.40
2018-10-03T19:35:10.024Z,68.59
2018-10-03T19:37:40.124Z,69.09
2018-10-03T19:40:09.635Z,69.42
2018-10-03T19:42:39.002Z,69.53
2018-10-03T19:45:08.472Z,69.32
2018-10-03T19:47:37.882Z,69.31
2018-10-03T19:50:07.273Z,70.05
2018-10-03T19:52:36.949Z,69.98
2018-10-03T19:55:06.499Z,70.13
2018-10-03T19:57:35.991Z,69.74
2018-10-03T20:00:05.680Z,70.41
2018-10-03T20:02:35.069Z,69.89
2018-10-03T20:05:04.551Z,69.73
2018-10-03T20:07:34.080Z,69.39
2018-10-03T20:10:03.613Z,69.66
2018-10-03T20:12:33.063Z,69.38
2018-10-03T20:15:02.767Z,69.63
2018-10-03T20:17:32.198Z,70.24
2018-10-03T20:20:01.619Z,69.68
2018-10-03T20:22:31.018Z,70.12
2018-10-03T20:25:00.451Z,70.76
2018-10-03T20:27:29.894Z,70.58
2018-10-03T20:29:59.218Z,69.78
2018-10-03T20:32:28.578Z,70.11
2018-10-03T20:34:58.073Z,70.08
2018-10-03T20:37:27.616Z,69.66
2018-10-03T20:39:57.016Z,70.13
2018-10-03T20:42:26.382Z,70.47
2018-10-03T20:44:55.867Z,70.67
2018-10-03T20:47:26.799Z,70.76
2018-10-03T20:49:56.167Z,70.58
2018-10-03T20:52:25.503Z,70.95
2018-10-03T20:54:54.843Z,70.80
2018-10-03T20:57:24.287Z,70.80
2018-10-03T20:59:53.748Z,70.91
2018-10-03T21:02:23.130Z,70.29
2018-10-03T21:04:52.543Z,70.02
2018-10-03T21:07:22.494Z,70.28
2018-10-03T21:09:51.823Z,69.84
2018-10-03T21:12:21.151Z,70.63
2018-10-03T21:14:50.644Z,69.91
2018-10-03T21:17:20.265Z,70.42
2018-10-03T21:19:49.839Z,70.99
2018-10-03T21:22:19.578Z,70.45
2018-10-03T21:24:49.210Z,71.29
2018-10-03T21:27:19.112Z,70.14
2018-10-03T21:29:48.933Z,71.27
2018-10-03T21:32:18.484Z,71.53
2018-10-03T21:34:47.887Z,72.89
2018-10-03T21:37:17.472Z,72.35
2018-10-03T21:39:47.688Z,71.99
2018-10-03T21:42:17.125Z,71.91
2018-10-03T21:44:46.810Z,71.48
2018-10-03T21:47:16.312Z,71.56
2018-10-03T21:49:46.072Z,70.07
2018-10-03T21:52:15.534Z,70.47
2018-10-03T21:54:45.004Z,70.35
2018-10-03T21:57:14.341Z,70.55
2018-10-03T21:59:43.846Z,70.84
2018-10-03T22:02:14.034Z,70.50
2018-10-03T22:04:43.381Z,70.17
2018-10-03T22:07:12.887Z,69.99
2018-10-03T22:09:42.423Z,69.91
2018-10-03T22:12:11.875Z,69.65
2018-10-03T22:14:41.484Z,69.97
2018-10-03T22:17:17.675Z,70.04
2018-10-03T22:19:47.739Z,69.75
2018-10-03T22:22:17.233Z,70.10
2018-10-03T22:24:47.596Z,70.22
2018-10-03T22:27:17.312Z,70.73
2018-10-03T22:29:47.746Z,70.85
2018-10-03T22:32:17.297Z,71.88
2018-10-03T22:34:46.740Z,72.96
2018-10-03T22:37:16.392Z,73.29
2018-10-03T22:39:46.711Z,73.56
2018-10-03T22:42:18.241Z,73.59
2018-10-03T22:44:47.536Z,73.25
2018-10-03T22:47:16.865Z,72.73
2018-10-03T22:49:46.238Z,72.52
2018-10-03T22:52:16.078Z,72.92
2018-10-03T22:54:46.605Z,72.63
2018-10-03T22:57:15.944Z,72.37
2018-10-03T22:59:45.603Z,72.06
2018-10-03T23:02:15.495Z,71.38
2018-10-03T23:04:44.862Z,70.97
2018-10-03T23:07:15.154Z,71.71
2018-10-03T23:09:44.739Z,71.27
2018-10-03T23:12:16.378Z,71.39
2018-10-03T23:14:47.269Z,70.95
2018-10-03T23:17:16.647Z,70.55
2018-10-03T23:19:45.994Z,70.92
2018-10-03T23:22:15.652Z,70.40
2018-10-03T23:24:45.028Z,69.77
2018-10-03T23:27:14.343Z,69.69
2018-10-03T23:29:43.739Z,70.41
2018-10-03T23:32:13.137Z,70.46
2018-10-03T23:34:42.484Z,69.90
2018-10-03T23:37:11.850Z,70.08
2018-10-03T23:39:41.234Z,69.93
2018-10-03T23:42:10.603Z,69.94
2018-10-03T23:44:40.052Z,68.70
2018-10-03T23:47:09.376Z,69.37
2018-10-03T23:49:38.746Z,69.82
2018-10-03T23:52:08.535Z,69.55
2018-10-03T23:54:37.898Z,69.72
2018-10-03T23:57:07.200Z,69.51
2018-10-03T23:59:36.562Z,69.02
